sensor_id;sensor_type;location;lat;lon;timestamp;P1;durP1;ratioP1;P2;durP2;ratioP2
52534;SDS011;38443;53.164;5.802;2023-04-15T00:04:24;17.60;;;6.60;;
52534;SDS011;38443;53.164;5.802;2023-04-15T00:09:19;11.30;;;5.93;;
52534;SDS011;38443;53.164;5.802;2023-04-15T00:11:44;11.05;;;5.18;;
52534;SDS011;38443;53.164;5.802;2023-04-15T00:16:36;9.45;;;5.45;;
52534;SDS011;38443;53.164;5.802;2023-04-15T00:21:27;10.13;;;5.50;;
52534;SDS011;38443;53.164;5.802;2023-04-15T00:26:18;10.25;;;5.80;;
52534;SDS011;38443;53.164;5.802;2023-04-15T00:28:44;8.40;;;5.28;;
52534;SDS011;38443;53.164;5.802;2023-04-15T00:33:35;9.10;;;5.77;;
52534;SDS011;38443;53.164;5.802;2023-04-15T00:38:27;14.23;;;6.18;;
52534;SDS011;38443;53.164;5.802;2023-04-15T00:43:19;9.23;;;5.68;;
52534;SDS011;38443;53.164;5.802;2023-04-15T00:48:11;7.93;;;5.38;;
52534;SDS011;38443;53.164;5.802;2023-04-15T00:53:01;10.83;;;6.00;;
52534;SDS011;38443;53.164;5.802;2023-04-15T00:57:52;14.03;;;6.47;;
52534;SDS011;38443;53.164;5.802;2023-04-15T01:02:44;10.80;;;6.00;;
52534;SDS011;38443;53.164;5.802;2023-04-15T01:07:35;12.38;;;6.93;;
52534;SDS011;38443;53.164;5.802;2023-04-15T01:12:27;16.85;;;6.97;;
52534;SDS011;38443;53.164;5.802;2023-04-15T01:17:19;11.15;;;6.22;;
52534;SDS011;38443;53.164;5.802;2023-04-15T01:22:10;15.07;;;7.70;;
52534;SDS011;38443;53.164;5.802;2023-04-15T01:27:01;12.23;;;7.28;;
52534;SDS011;38443;53.164;5.802;2023-04-15T01:29:29;11.93;;;7.35;;
52534;SDS011;38443;53.164;5.802;2023-04-15T01:31:56;15.60;;;7.97;;
52534;SDS011;38443;53.164;5.802;2023-04-15T01:36:47;12.75;;;7.32;;
52534;SDS011;38443;53.164;5.802;2023-04-15T01:41:38;13.13;;;7.40;;
52534;SDS011;38443;53.164;5.802;2023-04-15T01:44:04;13.00;;;8.30;;
52534;SDS011;38443;53.164;5.802;2023-04-15T01:46:31;13.48;;;7.40;;
52534;SDS011;38443;53.164;5.802;2023-04-15T01:51:21;14.10;;;8.00;;
52534;SDS011;38443;53.164;5.802;2023-04-15T01:56:12;17.58;;;8.40;;
52534;SDS011;38443;53.164;5.802;2023-04-15T02:01:04;13.48;;;8.27;;
52534;SDS011;38443;53.164;5.802;2023-04-15T02:05:54;15.60;;;8.33;;
52534;SDS011;38443;53.164;5.802;2023-04-15T02:10:46;17.27;;;9.13;;
52534;SDS011;38443;53.164;5.802;2023-04-15T02:15:37;15.65;;;8.57;;
52534;SDS011;38443;53.164;5.802;2023-04-15T02:20:28;19.02;;;10.05;;
52534;SDS011;38443;53.164;5.802;2023-04-15T02:22:54;18.13;;;9.23;;
52534;SDS011;38443;53.164;5.802;2023-04-15T02:25:21;15.10;;;8.95;;
52534;SDS011;38443;53.164;5.802;2023-04-15T02:30:11;16.40;;;9.70;;
52534;SDS011;38443;53.164;5.802;2023-04-15T02:35:03;17.42;;;10.38;;
52534;SDS011;38443;53.164;5.802;2023-04-15T02:37:29;17.88;;;9.43;;
52534;SDS011;38443;53.164;5.802;2023-04-15T02:39:56;16.42;;;9.63;;
52534;SDS011;38443;53.164;5.802;2023-04-15T02:44:46;14.30;;;9.03;;
52534;SDS011;38443;53.164;5.802;2023-04-15T02:49:38;15.13;;;8.98;;
52534;SDS011;38443;53.164;5.802;2023-04-15T02:54:29;20.67;;;10.02;;
52534;SDS011;38443;53.164;5.802;2023-04-15T02:56:56;15.30;;;9.68;;
52534;SDS011;38443;53.164;5.802;2023-04-15T03:01:47;19.02;;;9.25;;
52534;SDS011;38443;53.164;5.802;2023-04-15T03:06:38;18.75;;;9.95;;
52534;SDS011;38443;53.164;5.802;2023-04-15T03:11:29;16.35;;;9.73;;
52534;SDS011;38443;53.164;5.802;2023-04-15T03:16:21;21.85;;;10.32;;
52534;SDS011;38443;53.164;5.802;2023-04-15T03:21:11;21.37;;;10.37;;
52534;SDS011;38443;53.164;5.802;2023-04-15T03:26:02;18.17;;;10.43;;
52534;SDS011;38443;53.164;5.802;2023-04-15T03:28:28;18.52;;;11.25;;
52534;SDS011;38443;53.164;5.802;2023-04-15T03:33:19;17.97;;;10.13;;
52534;SDS011;38443;53.164;5.802;2023-04-15T03:38:10;16.83;;;10.07;;
52534;SDS011;38443;53.164;5.802;2023-04-15T03:43:00;18.85;;;11.13;;
52534;SDS011;38443;53.164;5.802;2023-04-15T03:47:51;19.47;;;10.20;;
52534;SDS011;38443;53.164;5.802;2023-04-15T03:52:42;16.73;;;10.52;;
52534;SDS011;38443;53.164;5.802;2023-04-15T03:55:08;19.42;;;10.90;;
52534;SDS011;38443;53.164;5.802;2023-04-15T04:00:02;20.65;;;11.50;;
52534;SDS011;38443;53.164;5.802;2023-04-15T04:02:28;17.35;;;10.23;;
52534;SDS011;38443;53.164;5.802;2023-04-15T04:07:19;19.93;;;10.63;;
52534;SDS011;38443;53.164;5.802;2023-04-15T04:12:09;22.33;;;11.00;;
52534;SDS011;38443;53.164;5.802;2023-04-15T04:17:00;17.42;;;10.63;;
52534;SDS011;38443;53.164;5.802;2023-04-15T04:21:51;21.33;;;11.75;;
52534;SDS011;38443;53.164;5.802;2023-04-15T04:26:41;23.50;;;11.67;;
52534;SDS011;38443;53.164;5.802;2023-04-15T04:31:32;20.23;;;12.07;;
52534;SDS011;38443;53.164;5.802;2023-04-15T04:36:22;22.87;;;10.80;;
52534;SDS011;38443;53.164;5.802;2023-04-15T04:41:13;24.92;;;11.77;;
52534;SDS011;38443;53.164;5.802;2023-04-15T04:46:04;19.80;;;11.13;;
52534;SDS011;38443;53.164;5.802;2023-04-15T04:50:54;22.02;;;12.32;;
52534;SDS011;38443;53.164;5.802;2023-04-15T04:55:45;18.27;;;11.20;;
52534;SDS011;38443;53.164;5.802;2023-04-15T05:00:36;17.50;;;11.57;;
52534;SDS011;38443;53.164;5.802;2023-04-15T05:05:27;23.33;;;11.85;;
52534;SDS011;38443;53.164;5.802;2023-04-15T05:10:18;19.17;;;11.20;;
52534;SDS011;38443;53.164;5.802;2023-04-15T05:15:09;24.13;;;11.70;;
52534;SDS011;38443;53.164;5.802;2023-04-15T05:20:00;20.77;;;10.60;;
52534;SDS011;38443;53.164;5.802;2023-04-15T05:22:26;18.77;;;11.15;;
52534;SDS011;38443;53.164;5.802;2023-04-15T05:27:16;19.03;;;10.33;;
52534;SDS011;38443;53.164;5.802;2023-04-15T05:29:43;22.30;;;11.18;;
52534;SDS011;38443;53.164;5.802;2023-04-15T05:34:34;17.73;;;9.07;;
52534;SDS011;38443;53.164;5.802;2023-04-15T05:39:25;19.27;;;9.75;;
52534;SDS011;38443;53.164;5.802;2023-04-15T05:44:16;18.40;;;9.75;;
52534;SDS011;38443;53.164;5.802;2023-04-15T05:49:07;17.70;;;9.18;;
52534;SDS011;38443;53.164;5.802;2023-04-15T05:53:57;14.63;;;8.85;;
52534;SDS011;38443;53.164;5.802;2023-04-15T05:58:48;15.57;;;9.13;;
52534;SDS011;38443;53.164;5.802;2023-04-15T06:03:39;12.30;;;8.07;;
52534;SDS011;38443;53.164;5.802;2023-04-15T06:08:30;15.23;;;9.23;;
52534;SDS011;38443;53.164;5.802;2023-04-15T06:13:22;17.83;;;9.05;;
52534;SDS011;38443;53.164;5.802;2023-04-15T06:18:13;16.02;;;9.18;;
52534;SDS011;38443;53.164;5.802;2023-04-15T06:23:04;14.52;;;8.23;;
52534;SDS011;38443;53.164;5.802;2023-04-15T06:27:54;17.85;;;8.25;;
52534;SDS011;38443;53.164;5.802;2023-04-15T06:32:45;12.85;;;8.13;;
52534;SDS011;38443;53.164;5.802;2023-04-15T06:37:36;11.17;;;7.10;;
52534;SDS011;38443;53.164;5.802;2023-04-15T06:42:29;13.55;;;8.13;;
52534;SDS011;38443;53.164;5.802;2023-04-15T06:47:20;13.32;;;7.97;;
52534;SDS011;38443;53.164;5.802;2023-04-15T06:52:10;16.33;;;8.00;;
52534;SDS011;38443;53.164;5.802;2023-04-15T06:57:01;13.73;;;8.13;;
52534;SDS011;38443;53.164;5.802;2023-04-15T07:01:52;15.13;;;8.70;;
52534;SDS011;38443;53.164;5.802;2023-04-15T07:06:44;14.60;;;8.50;;
52534;SDS011;38443;53.164;5.802;2023-04-15T07:11:35;13.15;;;7.57;;
52534;SDS011;38443;53.164;5.802;2023-04-15T07:16:26;16.42;;;8.15;;
52534;SDS011;38443;53.164;5.802;2023-04-15T07:18:51;13.55;;;9.10;;
52534;SDS011;38443;53.164;5.802;2023-04-15T07:23:42;18.35;;;8.30;;
52534;SDS011;38443;53.164;5.802;2023-04-15T07:26:08;15.93;;;8.38;;
52534;SDS011;38443;53.164;5.802;2023-04-15T07:28:33;12.80;;;7.38;;
52534;SDS011;38443;53.164;5.802;2023-04-15T07:30:58;10.15;;;6.60;;
52534;SDS011;38443;53.164;5.802;2023-04-15T07:35:50;12.10;;;7.05;;
52534;SDS011;38443;53.164;5.802;2023-04-15T07:38:15;10.30;;;6.63;;
52534;SDS011;38443;53.164;5.802;2023-04-15T07:40:40;11.52;;;6.93;;
52534;SDS011;38443;53.164;5.802;2023-04-15T07:45:31;8.00;;;4.88;;
52534;SDS011;38443;53.164;5.802;2023-04-15T07:47:57;9.88;;;5.70;;
52534;SDS011;38443;53.164;5.802;2023-04-15T07:50:22;9.13;;;4.80;;
52534;SDS011;38443;53.164;5.802;2023-04-15T07:52:51;7.95;;;4.40;;
52534;SDS011;38443;53.164;5.802;2023-04-15T07:55:17;7.47;;;4.72;;
52534;SDS011;38443;53.164;5.802;2023-04-15T07:57:45;5.57;;;3.92;;
52534;SDS011;38443;53.164;5.802;2023-04-15T08:00:11;7.50;;;4.45;;
52534;SDS011;38443;53.164;5.802;2023-04-15T08:02:37;6.05;;;4.13;;
52534;SDS011;38443;53.164;5.802;2023-04-15T08:05:03;8.30;;;4.75;;
52534;SDS011;38443;53.164;5.802;2023-04-15T08:07:29;6.30;;;4.05;;
52534;SDS011;38443;53.164;5.802;2023-04-15T08:09:55;6.30;;;3.75;;
52534;SDS011;38443;53.164;5.802;2023-04-15T08:12:20;4.53;;;3.38;;
52534;SDS011;38443;53.164;5.802;2023-04-15T08:14:46;7.82;;;4.15;;
52534;SDS011;38443;53.164;5.802;2023-04-15T08:17:11;6.35;;;3.17;;
52534;SDS011;38443;53.164;5.802;2023-04-15T08:19:37;7.63;;;3.72;;
52534;SDS011;38443;53.164;5.802;2023-04-15T08:22:02;5.43;;;3.78;;
52534;SDS011;38443;53.164;5.802;2023-04-15T08:26:53;6.10;;;3.80;;
52534;SDS011;38443;53.164;5.802;2023-04-15T08:29:18;5.25;;;3.30;;
52534;SDS011;38443;53.164;5.802;2023-04-15T08:34:12;5.85;;;3.92;;
52534;SDS011;38443;53.164;5.802;2023-04-15T08:36:37;7.00;;;3.95;;
52534;SDS011;38443;53.164;5.802;2023-04-15T08:41:30;8.50;;;3.90;;
52534;SDS011;38443;53.164;5.802;2023-04-15T08:44:04;6.20;;;3.50;;
52534;SDS011;38443;53.164;5.802;2023-04-15T08:46:30;6.03;;;3.38;;
52534;SDS011;38443;53.164;5.802;2023-04-15T08:48:56;4.85;;;3.40;;
52534;SDS011;38443;53.164;5.802;2023-04-15T08:51:23;8.18;;;3.83;;
52534;SDS011;38443;53.164;5.802;2023-04-15T08:53:49;8.45;;;4.32;;
52534;SDS011;38443;53.164;5.802;2023-04-15T08:58:41;8.48;;;5.18;;
52534;SDS011;38443;53.164;5.802;2023-04-15T09:01:08;9.65;;;4.38;;
52534;SDS011;38443;53.164;5.802;2023-04-15T09:03:36;9.00;;;5.45;;
52534;SDS011;38443;53.164;5.802;2023-04-15T09:08:28;5.53;;;3.60;;
52534;SDS011;38443;53.164;5.802;2023-04-15T09:10:53;5.95;;;3.67;;
52534;SDS011;38443;53.164;5.802;2023-04-15T09:13:19;5.47;;;3.72;;
52534;SDS011;38443;53.164;5.802;2023-04-15T09:18:10;7.27;;;3.90;;
52534;SDS011;38443;53.164;5.802;2023-04-15T09:20:38;6.32;;;3.30;;
52534;SDS011;38443;53.164;5.802;2023-04-15T09:23:12;6.90;;;4.38;;
52534;SDS011;38443;53.164;5.802;2023-04-15T09:25:39;6.45;;;3.72;;
52534;SDS011;38443;53.164;5.802;2023-04-15T09:28:08;6.75;;;3.70;;
52534;SDS011;38443;53.164;5.802;2023-04-15T09:30:34;7.97;;;3.55;;
52534;SDS011;38443;53.164;5.802;2023-04-15T09:35:26;4.80;;;2.23;;
52534;SDS011;38443;53.164;5.802;2023-04-15T09:40:35;6.47;;;3.42;;
52534;SDS011;38443;53.164;5.802;2023-04-15T09:43:02;8.73;;;3.47;;
52534;SDS011;38443;53.164;5.802;2023-04-15T09:45:29;5.40;;;3.00;;
52534;SDS011;38443;53.164;5.802;2023-04-15T09:47:59;5.20;;;3.00;;
52534;SDS011;38443;53.164;5.802;2023-04-15T09:50:40;5.15;;;2.80;;
52534;SDS011;38443;53.164;5.802;2023-04-15T09:53:08;5.15;;;2.88;;
52534;SDS011;38443;53.164;5.802;2023-04-15T09:55:34;4.38;;;2.58;;
52534;SDS011;38443;53.164;5.802;2023-04-15T10:00:25;3.65;;;2.53;;
52534;SDS011;38443;53.164;5.802;2023-04-15T10:02:50;6.40;;;2.70;;
52534;SDS011;38443;53.164;5.802;2023-04-15T10:07:41;2.72;;;1.88;;
52534;SDS011;38443;53.164;5.802;2023-04-15T10:10:07;4.95;;;2.60;;
52534;SDS011;38443;53.164;5.802;2023-04-15T10:12:33;4.97;;;2.28;;
52534;SDS011;38443;53.164;5.802;2023-04-15T10:15:02;4.25;;;2.45;;
52534;SDS011;38443;53.164;5.802;2023-04-15T10:17:29;3.53;;;2.45;;
52534;SDS011;38443;53.164;5.802;2023-04-15T10:20:01;3.92;;;2.10;;
52534;SDS011;38443;53.164;5.802;2023-04-15T10:22:28;3.60;;;2.25;;
52534;SDS011;38443;53.164;5.802;2023-04-15T10:24:55;2.15;;;1.83;;
52534;SDS011;38443;53.164;5.802;2023-04-15T10:27:21;2.90;;;1.88;;
52534;SDS011;38443;53.164;5.802;2023-04-15T10:29:48;2.22;;;1.65;;
52534;SDS011;38443;53.164;5.802;2023-04-15T10:32:14;3.83;;;2.00;;
52534;SDS011;38443;53.164;5.802;2023-04-15T10:34:43;2.90;;;1.77;;
52534;SDS011;38443;53.164;5.802;2023-04-15T10:37:10;2.78;;;1.90;;
52534;SDS011;38443;53.164;5.802;2023-04-15T10:42:10;3.15;;;1.90;;
52534;SDS011;38443;53.164;5.802;2023-04-15T10:44:38;2.15;;;1.83;;
52534;SDS011;38443;53.164;5.802;2023-04-15T10:47:09;3.80;;;2.20;;
52534;SDS011;38443;53.164;5.802;2023-04-15T10:49:41;4.72;;;2.13;;
52534;SDS011;38443;53.164;5.802;2023-04-15T10:52:09;3.88;;;2.10;;
52534;SDS011;38443;53.164;5.802;2023-04-15T10:54:35;3.20;;;1.95;;
52534;SDS011;38443;53.164;5.802;2023-04-15T11:02:01;5.13;;;1.60;;
52534;SDS011;38443;53.164;5.802;2023-04-15T11:07:15;2.42;;;1.60;;
52534;SDS011;38443;53.164;5.802;2023-04-15T11:09:56;4.90;;;2.00;;
52534;SDS011;38443;53.164;5.802;2023-04-15T11:14:57;3.17;;;2.13;;
52534;SDS011;38443;53.164;5.802;2023-04-15T11:19:52;3.85;;;2.10;;
52534;SDS011;38443;53.164;5.802;2023-04-15T11:24:47;4.60;;;2.30;;
52534;SDS011;38443;53.164;5.802;2023-04-15T11:27:21;5.40;;;2.20;;
52534;SDS011;38443;53.164;5.802;2023-04-15T11:29:47;3.47;;;2.03;;
52534;SDS011;38443;53.164;5.802;2023-04-15T11:34:37;2.87;;;1.90;;
52534;SDS011;38443;53.164;5.802;2023-04-15T11:39:29;5.78;;;2.25;;
52534;SDS011;38443;53.164;5.802;2023-04-15T11:44:20;5.57;;;2.60;;
52534;SDS011;38443;53.164;5.802;2023-04-15T11:46:45;5.18;;;2.25;;
52534;SDS011;38443;53.164;5.802;2023-04-15T11:51:36;3.67;;;2.13;;
52534;SDS011;38443;53.164;5.802;2023-04-15T11:56:27;6.90;;;2.45;;
52534;SDS011;38443;53.164;5.802;2023-04-15T12:01:29;6.75;;;1.67;;
52534;SDS011;38443;53.164;5.802;2023-04-15T12:03:55;4.00;;;1.98;;
52534;SDS011;38443;53.164;5.802;2023-04-15T12:06:24;3.70;;;2.00;;
52534;SDS011;38443;53.164;5.802;2023-04-15T12:08:57;4.90;;;1.83;;
52534;SDS011;38443;53.164;5.802;2023-04-15T12:16:43;7.22;;;2.85;;
52534;SDS011;38443;53.164;5.802;2023-04-15T12:19:14;4.95;;;1.90;;
52534;SDS011;38443;53.164;5.802;2023-04-15T12:21:44;5.10;;;1.90;;
52534;SDS011;38443;53.164;5.802;2023-04-15T12:24:11;5.00;;;2.00;;
52534;SDS011;38443;53.164;5.802;2023-04-15T12:29:07;5.13;;;2.00;;
52534;SDS011;38443;53.164;5.802;2023-04-15T12:33:59;4.30;;;1.77;;
52534;SDS011;38443;53.164;5.802;2023-04-15T12:36:25;5.85;;;1.95;;
52534;SDS011;38443;53.164;5.802;2023-04-15T12:38:51;4.82;;;1.65;;
52534;SDS011;38443;53.164;5.802;2023-04-15T12:43:45;6.47;;;1.70;;
52534;SDS011;38443;53.164;5.802;2023-04-15T12:46:11;7.55;;;2.30;;
52534;SDS011;38443;53.164;5.802;2023-04-15T12:48:37;4.47;;;2.22;;
52534;SDS011;38443;53.164;5.802;2023-04-15T12:53:28;2.83;;;1.50;;
52534;SDS011;38443;53.164;5.802;2023-04-15T12:58:18;8.03;;;2.20;;
52534;SDS011;38443;53.164;5.802;2023-04-15T13:00:45;6.05;;;2.20;;
52534;SDS011;38443;53.164;5.802;2023-04-15T13:05:36;8.73;;;2.88;;
52534;SDS011;38443;53.164;5.802;2023-04-15T13:08:03;5.85;;;2.63;;
52534;SDS011;38443;53.164;5.802;2023-04-15T13:10:29;5.20;;;1.80;;
52534;SDS011;38443;53.164;5.802;2023-04-15T13:15:21;10.38;;;2.42;;
52534;SDS011;38443;53.164;5.802;2023-04-15T13:20:12;15.68;;;2.40;;
52534;SDS011;38443;53.164;5.802;2023-04-15T13:25:03;3.40;;;1.73;;
52534;SDS011;38443;53.164;5.802;2023-04-15T13:27:29;3.45;;;1.75;;
52534;SDS011;38443;53.164;5.802;2023-04-15T13:32:21;3.50;;;1.75;;
52534;SDS011;38443;53.164;5.802;2023-04-15T13:37:11;5.80;;;1.80;;
52534;SDS011;38443;53.164;5.802;2023-04-15T13:42:02;6.53;;;2.17;;
52534;SDS011;38443;53.164;5.802;2023-04-15T13:46:52;5.00;;;1.60;;
52534;SDS011;38443;53.164;5.802;2023-04-15T13:51:43;2.85;;;1.45;;
52534;SDS011;38443;53.164;5.802;2023-04-15T13:54:08;3.95;;;1.80;;
52534;SDS011;38443;53.164;5.802;2023-04-15T13:56:34;3.63;;;1.48;;
52534;SDS011;38443;53.164;5.802;2023-04-15T13:58:59;6.43;;;2.10;;
52534;SDS011;38443;53.164;5.802;2023-04-15T14:01:26;4.85;;;2.28;;
52534;SDS011;38443;53.164;5.802;2023-04-15T14:06:17;4.10;;;2.00;;
52534;SDS011;38443;53.164;5.802;2023-04-15T14:11:08;7.80;;;2.47;;
52534;SDS011;38443;53.164;5.802;2023-04-15T14:15:58;3.83;;;1.67;;
52534;SDS011;38443;53.164;5.802;2023-04-15T14:20:49;4.97;;;2.22;;
52534;SDS011;38443;53.164;5.802;2023-04-15T14:25:40;6.30;;;2.13;;
52534;SDS011;38443;53.164;5.802;2023-04-15T14:30:31;10.87;;;2.87;;
52534;SDS011;38443;53.164;5.802;2023-04-15T14:35:21;4.50;;;1.73;;
52534;SDS011;38443;53.164;5.802;2023-04-15T14:37:48;5.95;;;1.65;;
52534;SDS011;38443;53.164;5.802;2023-04-15T14:42:39;9.90;;;2.40;;
52534;SDS011;38443;53.164;5.802;2023-04-15T14:47:30;2.97;;;1.92;;
52534;SDS011;38443;53.164;5.802;2023-04-15T14:52:20;5.83;;;1.80;;
52534;SDS011;38443;53.164;5.802;2023-04-15T14:57:11;5.00;;;2.00;;
52534;SDS011;38443;53.164;5.802;2023-04-15T14:59:36;3.03;;;1.92;;
52534;SDS011;38443;53.164;5.802;2023-04-15T15:04:27;3.92;;;1.50;;
52534;SDS011;38443;53.164;5.802;2023-04-15T15:06:53;5.78;;;1.80;;
52534;SDS011;38443;53.164;5.802;2023-04-15T15:09:18;7.28;;;2.20;;
52534;SDS011;38443;53.164;5.802;2023-04-15T15:11:46;4.68;;;1.95;;
52534;SDS011;38443;53.164;5.802;2023-04-15T15:16:36;5.32;;;1.83;;
52534;SDS011;38443;53.164;5.802;2023-04-15T15:21:27;4.22;;;1.60;;
52534;SDS011;38443;53.164;5.802;2023-04-15T15:23:52;5.10;;;2.28;;
52534;SDS011;38443;53.164;5.802;2023-04-15T15:26:18;5.85;;;2.60;;
52534;SDS011;38443;53.164;5.802;2023-04-15T15:28:43;4.22;;;1.90;;
52534;SDS011;38443;53.164;5.802;2023-04-15T15:31:10;6.22;;;2.10;;
52534;SDS011;38443;53.164;5.802;2023-04-15T15:36:00;9.60;;;3.97;;
52534;SDS011;38443;53.164;5.802;2023-04-15T15:38:28;3.67;;;1.80;;
52534;SDS011;38443;53.164;5.802;2023-04-15T15:43:18;10.13;;;3.13;;
52534;SDS011;38443;53.164;5.802;2023-04-15T17:58:05;16.08;;;3.13;;
52534;SDS011;38443;53.164;5.802;2023-04-15T18:02:56;7.37;;;2.63;;
52534;SDS011;38443;53.164;5.802;2023-04-15T18:07:46;8.73;;;3.28;;
52534;SDS011;38443;53.164;5.802;2023-04-15T18:12:37;9.57;;;3.95;;
52534;SDS011;38443;53.164;5.802;2023-04-15T18:17:28;6.07;;;3.42;;
52534;SDS011;38443;53.164;5.802;2023-04-15T18:22:19;7.55;;;2.92;;
52534;SDS011;38443;53.164;5.802;2023-04-15T18:27:10;9.18;;;3.03;;
52534;SDS011;38443;53.164;5.802;2023-04-15T18:32:01;11.70;;;3.43;;
52534;SDS011;38443;53.164;5.802;2023-04-15T18:34:27;10.05;;;3.90;;
52534;SDS011;38443;53.164;5.802;2023-04-15T18:36:54;13.35;;;4.10;;
52534;SDS011;38443;53.164;5.802;2023-04-15T18:39:20;12.35;;;3.78;;
52534;SDS011;38443;53.164;5.802;2023-04-15T18:44:11;8.83;;;4.13;;
52534;SDS011;38443;53.164;5.802;2023-04-15T18:49:01;13.13;;;4.53;;
52534;SDS011;38443;53.164;5.802;2023-04-15T18:51:28;10.98;;;5.00;;
52534;SDS011;38443;53.164;5.802;2023-04-15T18:56:18;12.40;;;4.80;;
52534;SDS011;38443;53.164;5.802;2023-04-15T19:01:09;8.93;;;4.28;;
52534;SDS011;38443;53.164;5.802;2023-04-15T19:03:34;25.90;;;5.68;;
52534;SDS011;38443;53.164;5.802;2023-04-15T19:08:25;11.57;;;5.13;;
52534;SDS011;38443;53.164;5.802;2023-04-15T19:13:16;14.45;;;5.97;;
52534;SDS011;38443;53.164;5.802;2023-04-15T19:18:07;14.87;;;4.73;;
52534;SDS011;38443;53.164;5.802;2023-04-15T19:20:37;13.65;;;4.75;;
52534;SDS011;38443;53.164;5.802;2023-04-15T19:23:03;16.70;;;5.55;;
52534;SDS011;38443;53.164;5.802;2023-04-15T19:27:54;20.50;;;6.13;;
52534;SDS011;38443;53.164;5.802;2023-04-15T19:32:45;17.55;;;5.40;;
52534;SDS011;38443;53.164;5.802;2023-04-15T19:37:36;26.23;;;6.33;;
52534;SDS011;38443;53.164;5.802;2023-04-15T19:42:26;24.00;;;7.03;;
52534;SDS011;38443;53.164;5.802;2023-04-15T19:47:17;17.60;;;5.57;;
52534;SDS011;38443;53.164;5.802;2023-04-15T19:52:08;12.77;;;5.38;;
52534;SDS011;38443;53.164;5.802;2023-04-15T19:56:59;22.23;;;7.03;;
52534;SDS011;38443;53.164;5.802;2023-04-15T19:59:25;18.25;;;6.40;;
52534;SDS011;38443;53.164;5.802;2023-04-15T20:04:16;23.52;;;6.30;;
52534;SDS011;38443;53.164;5.802;2023-04-15T20:09:06;18.63;;;6.47;;
52534;SDS011;38443;53.164;5.802;2023-04-15T20:13:57;19.60;;;6.37;;
52534;SDS011;38443;53.164;5.802;2023-04-15T20:18:48;22.55;;;6.93;;
52534;SDS011;38443;53.164;5.802;2023-04-15T20:23:39;16.90;;;7.03;;
52534;SDS011;38443;53.164;5.802;2023-04-15T22:38:05;41.77;;;14.50;;
52534;SDS011;38443;53.164;5.802;2023-04-15T22:40:30;38.53;;;13.93;;
52534;SDS011;38443;53.164;5.802;2023-04-15T22:45:21;35.15;;;16.08;;
52534;SDS011;38443;53.164;5.802;2023-04-15T22:50:11;31.77;;;13.10;;
52534;SDS011;38443;53.164;5.802;2023-04-15T22:55:02;37.85;;;15.20;;
52534;SDS011;38443;53.164;5.802;2023-04-15T22:59:54;43.60;;;14.98;;
52534;SDS011;38443;53.164;5.802;2023-04-15T23:04:44;41.40;;;13.93;;
52534;SDS011;38443;53.164;5.802;2023-04-15T23:09:35;42.95;;;14.90;;
52534;SDS011;38443;53.164;5.802;2023-04-15T23:14:26;38.45;;;15.80;;
52534;SDS011;38443;53.164;5.802;2023-04-15T23:16:52;48.00;;;16.30;;
52534;SDS011;38443;53.164;5.802;2023-04-15T23:21:43;38.03;;;15.38;;
52534;SDS011;38443;53.164;5.802;2023-04-15T23:26:35;47.90;;;16.33;;
52534;SDS011;38443;53.164;5.802;2023-04-15T23:31:25;40.55;;;15.40;;
52534;SDS011;38443;53.164;5.802;2023-04-15T23:36:16;42.63;;;15.53;;
52534;SDS011;38443;53.164;5.802;2023-04-15T23:41:06;41.90;;;16.13;;
52534;SDS011;38443;53.164;5.802;2023-04-15T23:43:33;46.20;;;17.00;;
52534;SDS011;38443;53.164;5.802;2023-04-15T23:48:24;41.08;;;16.10;;
52534;SDS011;38443;53.164;5.802;2023-04-15T23:53:15;38.50;;;16.60;;
52534;SDS011;38443;53.164;5.802;2023-04-15T23:55:41;47.20;;;16.60;;
